createdAt,value
2018-01-20T00:01:01.685Z,11.75
2018-01-20T00:03:29.696Z,11.55
2018-01-20T00:05:57.744Z,10.32
2018-01-20T00:08:26.639Z,11.20
2018-01-20T00:11:18.222Z,11.02
2018-01-20T00:13:46.248Z,10.38
2018-01-20T00:16:14.287Z,10.57
2018-01-20T00:18:43.063Z,10.68
2018-01-20T00:21:11.196Z,11.48
2018-01-20T00:23:39.225Z,10.20
2018-01-20T00:26:13.657Z,10.93
2018-01-20T00:28:41.726Z,9.82
2018-01-20T00:31:09.752Z,10.02
2018-01-20T00:33:37.779Z,10.57
2018-01-20T00:36:05.792Z,11.88
2018-01-20T00:38:33.828Z,11.05
2018-01-20T00:41:01.828Z,10.52
2018-01-20T00:43:29.854Z,11.90
2018-01-20T00:45:57.877Z,11.10
2018-01-20T00:48:25.926Z,10.98
2018-01-20T00:50:53.978Z,10.88
2018-01-20T00:53:21.988Z,10.75
2018-01-20T00:55:50.011Z,12.65
2018-01-20T00:58:18.026Z,13.00
2018-01-20T01:00:46.062Z,12.75
2018-01-20T01:03:14.140Z,11.02
2018-01-20T01:05:42.160Z,12.88
2018-01-20T01:08:10.936Z,12.13
2018-01-20T01:10:38.961Z,12.48
2018-01-20T01:13:07.018Z,10.07
2018-01-20T01:15:35.032Z,11.48
2018-01-20T01:18:03.081Z,10.93
2018-01-20T01:20:31.110Z,11.55
2018-01-20T01:22:59.912Z,14.10
2018-01-20T01:25:27.922Z,11.20
2018-01-20T01:27:55.947Z,10.80
2018-01-20T01:30:23.968Z,12.63
2018-01-20T01:32:51.979Z,11.77
2018-01-20T01:35:20.769Z,12.82
2018-01-20T01:37:48.789Z,11.75
2018-01-20T01:40:16.816Z,11.82
2018-01-20T01:42:44.824Z,11.52
2018-01-20T01:45:12.847Z,10.32
2018-01-20T01:47:41.631Z,11.55
2018-01-20T01:50:10.419Z,11.45
2018-01-20T01:52:39.200Z,10.98
2018-01-20T01:55:08.009Z,12.48
2018-01-20T01:57:36.054Z,11.18
2018-01-20T02:00:04.928Z,11.50
2018-01-20T02:02:32.961Z,11.80
2018-01-20T02:05:01.009Z,10.13
2018-01-20T02:07:29.038Z,10.55
2018-01-20T02:09:57.061Z,10.50
2018-01-20T02:12:25.089Z,10.18
2018-01-20T02:14:53.161Z,10.40
2018-01-20T02:17:21.189Z,10.65
2018-01-20T02:19:49.204Z,10.18
2018-01-20T02:22:17.993Z,10.02
2018-01-20T02:24:46.787Z,10.23
2018-01-20T02:27:15.617Z,11.18
2018-01-20T02:29:43.632Z,9.18
2018-01-20T02:32:11.681Z,11.20
2018-01-20T02:34:39.705Z,10.52
2018-01-20T02:37:07.712Z,9.63
2018-01-20T02:39:35.756Z,9.82
2018-01-20T02:42:03.776Z,11.48
2018-01-20T02:44:31.774Z,9.88
2018-01-20T02:47:00.565Z,10.18
2018-01-20T02:49:28.618Z,11.00
2018-01-20T02:51:57.436Z,10.07
2018-01-20T02:54:25.451Z,9.80
2018-01-20T02:56:53.471Z,9.90
2018-01-20T02:59:21.487Z,10.23
2018-01-20T03:01:49.517Z,10.55
2018-01-20T03:04:17.580Z,10.27
2018-01-20T03:06:45.601Z,9.23
2018-01-20T03:09:13.612Z,9.43
2018-01-20T03:11:41.637Z,8.95
2018-01-20T03:14:09.657Z,10.77
2018-01-20T03:16:37.668Z,10.77
2018-01-20T03:19:05.708Z,8.60
2018-01-20T03:21:33.781Z,9.93
2018-01-20T03:24:01.836Z,9.63
2018-01-20T03:26:29.848Z,11.25
2018-01-20T03:28:57.875Z,9.65
2018-01-20T03:31:26.656Z,10.07
2018-01-20T03:33:55.449Z,10.85
2018-01-20T03:36:24.290Z,9.90
2018-01-20T03:38:53.072Z,8.18
2018-01-20T03:41:21.887Z,10.40
2018-01-20T03:43:49.905Z,9.27
2018-01-20T03:46:17.938Z,9.95
2018-01-20T03:48:46.724Z,9.75
2018-01-20T03:51:14.752Z,9.60
2018-01-20T03:53:42.776Z,9.23
2018-01-20T03:56:11.549Z,8.65
2018-01-20T03:58:39.600Z,8.43
2018-01-20T04:01:07.632Z,8.93
2018-01-20T04:03:35.688Z,9.20
2018-01-20T04:06:03.750Z,9.00
2018-01-20T04:08:32.549Z,8.38
2018-01-20T04:11:00.586Z,10.45
2018-01-20T04:13:28.599Z,12.45
2018-01-20T04:15:56.602Z,9.32
2018-01-20T04:18:24.620Z,10.20
2018-01-20T04:20:53.413Z,8.38
2018-01-20T04:23:21.460Z,9.60
2018-01-20T04:25:50.278Z,7.90
2018-01-20T04:28:18.298Z,8.63
2018-01-20T04:30:46.365Z,7.70
2018-01-20T04:33:14.404Z,8.25
2018-01-20T04:35:42.456Z,8.75
2018-01-20T04:38:10.477Z,7.60
2018-01-20T04:40:38.524Z,7.80
2018-01-20T04:43:06.618Z,8.65
2018-01-20T04:45:34.641Z,8.63
2018-01-20T04:48:02.674Z,8.73
2018-01-20T04:50:30.694Z,7.97
2018-01-20T04:52:58.698Z,8.10
2018-01-20T04:55:26.795Z,8.82
2018-01-20T04:57:55.589Z,9.65
2018-01-20T05:00:24.440Z,8.85
2018-01-20T05:02:52.460Z,8.32
2018-01-20T05:05:20.516Z,8.82
2018-01-20T05:07:49.304Z,9.45
2018-01-20T05:10:18.122Z,9.52
2018-01-20T05:12:46.132Z,10.60
2018-01-20T05:15:14.153Z,9.57
2018-01-20T05:17:42.166Z,10.27
2018-01-20T05:20:10.185Z,9.00
2018-01-20T05:22:38.965Z,10.15
2018-01-20T05:25:07.734Z,11.00
2018-01-20T05:27:35.738Z,9.45
2018-01-20T05:30:03.820Z,9.77
2018-01-20T05:32:31.842Z,11.65
2018-01-20T05:34:59.861Z,9.35
2018-01-20T05:37:27.866Z,10.25
2018-01-20T05:39:55.890Z,10.65
2018-01-20T05:42:23.908Z,8.98
2018-01-20T05:44:51.898Z,9.45
2018-01-20T05:47:19.961Z,10.35
2018-01-20T05:49:47.990Z,10.55
2018-01-20T05:52:16.004Z,10.30
2018-01-20T05:54:44.025Z,11.35
2018-01-20T05:57:12.069Z,9.85
2018-01-20T05:59:40.869Z,10.13
2018-01-20T06:02:08.910Z,10.05
2018-01-20T06:04:36.945Z,10.38
2018-01-20T06:07:04.985Z,9.05
2018-01-20T06:09:33.042Z,8.80
2018-01-20T06:12:01.058Z,10.98
2018-01-20T06:14:29.094Z,10.18
2018-01-20T06:16:57.106Z,9.80
2018-01-20T06:19:25.130Z,10.50
2018-01-20T06:21:53.171Z,9.77
2018-01-20T06:24:21.947Z,9.93
2018-01-20T06:26:49.969Z,9.63
2018-01-20T06:29:17.981Z,9.95
2018-01-20T06:31:46.026Z,10.18
2018-01-20T06:34:14.051Z,8.65
2018-01-20T06:36:42.818Z,10.02
2018-01-20T06:39:10.808Z,10.00
2018-01-20T06:41:39.559Z,10.55
2018-01-20T06:44:07.550Z,9.98
2018-01-20T06:46:35.581Z,9.82
2018-01-20T06:49:03.595Z,10.68
2018-01-20T06:51:32.415Z,10.68
2018-01-20T06:54:00.469Z,10.85
2018-01-20T06:56:29.245Z,10.75
2018-01-20T06:58:58.137Z,11.70
2018-01-20T07:01:26.929Z,12.77
2018-01-20T07:03:55.761Z,12.45
2018-01-20T07:06:23.838Z,12.95
2018-01-20T07:08:51.836Z,11.35
2018-01-20T07:11:19.839Z,12.77
2018-01-20T07:13:47.857Z,13.77
2018-01-20T07:16:15.926Z,13.35
2018-01-20T07:18:43.987Z,12.93
2018-01-20T07:21:11.989Z,20.45
2018-01-20T07:23:39.997Z,21.83
2018-01-20T07:26:08.031Z,49.97
2018-01-20T07:28:36.050Z,75.20
2018-01-20T07:31:04.139Z,107.68
2018-01-20T07:33:32.146Z,71.07
2018-01-20T07:36:00.164Z,81.28
2018-01-20T07:38:28.229Z,76.68
2018-01-20T07:40:56.245Z,88.60
2018-01-20T07:43:24.243Z,78.22
2018-01-20T07:45:53.041Z,67.12
2018-01-20T07:48:21.070Z,105.15
2018-01-20T07:50:49.125Z,106.82
2018-01-20T07:53:17.174Z,82.07
2018-01-20T07:55:45.188Z,69.47
2018-01-20T07:58:13.245Z,69.68
2018-01-20T08:00:41.326Z,55.90
2018-01-20T08:03:09.361Z,61.10
2018-01-20T08:05:37.400Z,66.28
2018-01-20T08:08:06.187Z,105.05
2018-01-20T08:10:34.174Z,60.67
2018-01-20T08:13:03.727Z,44.95
2018-01-20T08:15:32.711Z,41.63
2018-01-20T08:18:00.750Z,64.82
2018-01-20T08:20:28.771Z,102.85
2018-01-20T08:22:56.806Z,98.75
2018-01-20T08:25:24.809Z,60.12
2018-01-20T08:27:52.802Z,49.53
2018-01-20T08:30:21.588Z,38.85
2018-01-20T08:32:50.333Z,32.22
2018-01-20T08:35:18.348Z,28.48
2018-01-20T08:37:47.161Z,27.92
2018-01-20T08:40:15.170Z,25.80
2018-01-20T08:42:43.182Z,24.37
2018-01-20T08:45:11.179Z,19.42
2018-01-20T08:47:39.217Z,23.10
2018-01-20T08:50:07.263Z,22.48
2018-01-20T08:52:35.274Z,31.55
2018-01-20T08:55:03.367Z,33.25
2018-01-20T08:57:31.398Z,38.70
2018-01-20T09:00:00.183Z,34.10
2018-01-20T09:02:28.959Z,31.23
2018-01-20T09:04:57.735Z,23.62
2018-01-20T09:07:25.739Z,22.98
2018-01-20T09:09:53.738Z,19.95
2018-01-20T09:12:21.763Z,19.67
2018-01-20T09:14:50.545Z,20.23
2018-01-20T09:17:19.350Z,19.17
2018-01-20T09:19:47.350Z,18.90
2018-01-20T09:22:15.365Z,18.52
2018-01-20T09:24:43.359Z,20.98
2018-01-20T09:27:11.396Z,18.73
2018-01-20T09:29:39.486Z,19.40
2018-01-20T09:32:08.320Z,17.60
2018-01-20T09:34:36.321Z,20.40
2018-01-20T09:37:04.360Z,35.83
2018-01-20T09:39:32.368Z,26.42
2018-01-20T09:42:00.336Z,28.73
2018-01-20T09:44:28.331Z,28.05
2018-01-20T09:46:57.110Z,25.73
2018-01-20T09:49:25.887Z,22.85
2018-01-20T09:51:53.954Z,22.13
2018-01-20T09:54:21.954Z,23.75
2018-01-20T09:56:49.978Z,25.15
2018-01-20T09:59:17.997Z,26.80
2018-01-20T10:01:46.080Z,25.90
2018-01-20T10:04:14.079Z,27.33
2018-01-20T10:06:42.079Z,27.23
2018-01-20T10:09:10.845Z,26.87
2018-01-20T10:11:38.869Z,26.58
2018-01-20T10:14:06.886Z,28.12
2018-01-20T10:16:34.934Z,27.13
2018-01-20T10:19:02.936Z,27.05
2018-01-20T10:21:30.955Z,27.23
2018-01-20T10:23:59.006Z,26.55
2018-01-20T10:26:27.002Z,29.27
2018-01-20T10:28:55.057Z,27.37
2018-01-20T10:31:23.081Z,29.27
2018-01-20T10:33:51.106Z,29.33
2018-01-20T10:36:19.126Z,28.80
2018-01-20T10:38:47.211Z,30.62
2018-01-20T10:41:15.993Z,29.42
2018-01-20T10:43:44.000Z,29.85
2018-01-20T10:46:12.028Z,32.58
2018-01-20T10:48:40.055Z,31.10
2018-01-20T10:51:08.084Z,57.03
2018-01-20T10:53:36.919Z,83.10
2018-01-20T10:56:04.934Z,54.00
2018-01-20T10:58:33.699Z,44.92
2018-01-20T11:01:01.724Z,39.75
2018-01-20T11:03:29.735Z,37.70
2018-01-20T11:05:57.796Z,38.60
2018-01-20T11:08:25.792Z,41.00
2018-01-20T11:10:53.907Z,45.63
2018-01-20T11:13:21.937Z,38.65
2018-01-20T11:15:50.239Z,38.72
2018-01-20T11:18:18.567Z,37.25
2018-01-20T11:20:47.593Z,36.42
2018-01-20T11:23:15.909Z,39.95
2018-01-20T11:25:44.164Z,38.88
2018-01-20T11:28:12.342Z,35.97
2018-01-20T11:30:40.520Z,33.97
2018-01-20T11:33:08.696Z,36.92
2018-01-20T11:35:36.739Z,35.58
2018-01-20T11:38:05.569Z,36.65
2018-01-20T11:40:33.624Z,36.75
2018-01-20T11:43:01.638Z,37.65
2018-01-20T11:45:29.670Z,38.22
2018-01-20T11:47:57.690Z,40.88
2018-01-20T11:50:25.695Z,37.70
2018-01-20T11:52:53.956Z,36.13
2018-01-20T11:55:22.223Z,38.80
2018-01-20T11:57:50.427Z,40.13
2018-01-20T12:00:18.626Z,38.65
2018-01-20T12:02:46.927Z,38.30
2018-01-20T12:05:15.979Z,37.97
2018-01-20T12:07:44.144Z,36.83
2018-01-20T12:10:12.289Z,39.90
2018-01-20T12:12:40.425Z,38.40
2018-01-20T12:15:08.486Z,35.43
2018-01-20T12:20:04.805Z,35.73
2018-01-20T12:22:33.129Z,35.88
2018-01-20T12:25:02.299Z,36.07
2018-01-20T12:27:30.659Z,35.67
2018-01-20T12:30:00.640Z,35.60
2018-01-20T12:32:28.951Z,37.60
2018-01-20T12:34:57.316Z,35.40
2018-01-20T12:37:25.669Z,37.20
2018-01-20T12:39:54.083Z,35.27
2018-01-20T12:42:22.567Z,36.27
2018-01-20T12:44:50.677Z,35.83
2018-01-20T12:47:19.124Z,38.57
2018-01-20T12:49:47.510Z,33.40
2018-01-20T12:52:15.891Z,33.60
2018-01-20T12:54:44.315Z,34.60
2018-01-20T12:57:12.726Z,36.30
2018-01-20T12:59:41.130Z,36.17
2018-01-20T13:02:09.491Z,33.40
2018-01-20T13:04:37.841Z,35.00
2018-01-20T13:07:06.156Z,35.37
2018-01-20T13:09:34.510Z,34.40
2018-01-20T13:12:02.912Z,33.53
2018-01-20T13:14:31.235Z,35.90
2018-01-20T13:16:59.541Z,35.03
2018-01-20T13:19:27.899Z,32.27
2018-01-20T13:21:56.329Z,32.83
2018-01-20T13:24:24.758Z,32.70
2018-01-20T13:26:53.065Z,36.40
2018-01-20T13:29:21.180Z,31.47
2018-01-20T13:31:49.242Z,31.90
2018-01-20T13:34:17.250Z,31.97
2018-01-20T13:36:46.094Z,34.70
2018-01-20T13:39:14.118Z,32.43
2018-01-20T13:41:42.935Z,32.70
2018-01-20T13:44:10.964Z,33.73
2018-01-20T13:46:39.058Z,32.17
2018-01-20T13:49:07.835Z,35.23
2018-01-20T13:51:36.621Z,31.50
2018-01-20T13:54:05.442Z,33.50
2018-01-20T13:56:33.477Z,32.20
2018-01-20T13:59:02.262Z,31.40
2018-01-20T14:01:30.313Z,31.23
2018-01-20T14:03:58.369Z,31.23
2018-01-20T14:06:26.555Z,32.30
2018-01-20T14:08:54.578Z,30.17
2018-01-20T14:11:22.594Z,31.00
2018-01-20T14:13:50.626Z,31.27
2018-01-20T14:16:18.603Z,31.20
2018-01-20T14:18:46.621Z,34.37
2018-01-20T14:21:14.678Z,32.73
2018-01-20T14:23:42.699Z,32.90
2018-01-20T14:26:10.747Z,31.77
2018-01-20T14:28:39.549Z,33.20
2018-01-20T14:31:07.610Z,32.37
2018-01-20T14:33:36.482Z,31.57
2018-01-20T14:36:04.491Z,32.90
2018-01-20T14:38:32.482Z,28.40
2018-01-20T14:41:00.514Z,31.10
2018-01-20T14:43:29.290Z,29.47
2018-01-20T14:45:58.093Z,29.70
2018-01-20T14:48:26.157Z,26.23
2018-01-20T14:50:54.953Z,28.33
2018-01-20T14:53:23.055Z,28.23
2018-01-20T14:55:51.087Z,28.83
2018-01-20T14:58:19.914Z,30.33
2018-01-20T15:00:47.953Z,25.67
2018-01-20T15:03:16.074Z,28.17
2018-01-20T15:05:44.100Z,28.27
2018-01-20T15:08:12.146Z,29.40
2018-01-20T15:10:40.923Z,28.67
2018-01-20T15:13:08.947Z,27.43
2018-01-20T15:15:36.969Z,28.30
2018-01-20T15:18:04.979Z,29.30
2018-01-20T15:20:32.998Z,29.43
2018-01-20T15:23:01.074Z,29.57
2018-01-20T15:25:29.117Z,31.13
2018-01-20T15:27:57.173Z,31.23
2018-01-20T15:30:25.192Z,34.50
2018-01-20T15:32:54.003Z,34.10
2018-01-20T15:35:22.786Z,32.00
2018-01-20T15:37:50.798Z,32.30
2018-01-20T15:40:18.841Z,33.80
2018-01-20T15:42:46.913Z,35.40
2018-01-20T15:45:14.943Z,34.87
2018-01-20T15:47:42.915Z,35.30
2018-01-20T15:50:11.293Z,33.00
2018-01-20T15:52:40.129Z,34.37
2018-01-20T15:55:08.170Z,31.07
2018-01-20T15:57:36.963Z,32.10
2018-01-20T16:00:06.110Z,32.37
2018-01-20T16:02:34.121Z,31.57
2018-01-20T16:05:02.926Z,31.70
2018-01-20T16:07:31.002Z,33.30
2018-01-20T16:09:59.101Z,33.80
2018-01-20T16:12:27.171Z,31.10
2018-01-20T16:14:55.218Z,33.90
2018-01-20T16:17:23.230Z,35.70
2018-01-20T16:19:51.378Z,32.43
2018-01-20T16:22:19.756Z,32.30
2018-01-20T16:24:47.781Z,33.50
2018-01-20T16:27:16.997Z,35.57
2018-01-20T16:29:45.064Z,35.20
2018-01-20T16:32:13.109Z,34.63
2018-01-20T16:34:42.174Z,35.10
2018-01-20T16:37:10.375Z,34.67
2018-01-20T16:39:38.394Z,34.33
2018-01-20T16:42:06.490Z,34.60
2018-01-20T16:44:34.553Z,36.03
2018-01-20T16:47:02.622Z,36.47
2018-01-20T16:49:30.622Z,37.50
2018-01-20T16:51:58.677Z,35.13
2018-01-20T16:54:26.693Z,37.13
2018-01-20T16:56:55.546Z,36.37
2018-01-20T16:59:23.624Z,35.60
2018-01-20T17:01:51.775Z,33.77
2018-01-20T17:04:19.808Z,37.17
2018-01-20T17:06:47.844Z,35.37
2018-01-20T17:09:15.889Z,36.10
2018-01-20T17:11:43.931Z,35.87
2018-01-20T17:14:12.000Z,38.27
2018-01-20T17:16:40.049Z,37.20
2018-01-20T17:19:08.070Z,36.25
2018-01-20T17:21:36.150Z,37.33
2018-01-20T17:24:04.190Z,36.57
2018-01-20T17:26:32.300Z,38.17
2018-01-20T17:29:00.354Z,38.03
2018-01-20T17:31:28.430Z,38.40
2018-01-20T17:33:56.454Z,38.58
2018-01-20T17:36:24.538Z,39.08
2018-01-20T17:38:52.579Z,38.97
2018-01-20T17:41:21.367Z,40.97
2018-01-20T17:43:50.221Z,40.30
2018-01-20T17:46:18.356Z,39.47
2018-01-20T17:48:46.695Z,42.67
2018-01-20T17:51:15.573Z,39.72
2018-01-20T17:53:43.697Z,39.58
2018-01-20T17:56:11.874Z,42.00
2018-01-20T17:58:39.939Z,41.15
2018-01-20T18:01:08.858Z,41.20
2018-01-20T18:03:36.960Z,43.03
2018-01-20T18:06:06.381Z,39.25
2018-01-20T18:08:35.167Z,42.53
2018-01-20T18:11:03.209Z,42.17
2018-01-20T18:13:31.232Z,42.17
2018-01-20T18:15:59.254Z,41.00
2018-01-20T18:18:27.280Z,42.50
2018-01-20T18:20:55.314Z,43.60
2018-01-20T18:23:24.129Z,42.55
2018-01-20T18:25:52.367Z,43.22
2018-01-20T18:28:21.177Z,45.12
2018-01-20T18:30:49.946Z,47.60
2018-01-20T18:33:18.935Z,52.53
2018-01-20T18:35:49.256Z,51.17
2018-01-20T18:38:18.968Z,47.83
2018-01-20T18:40:47.242Z,44.35
2018-01-20T18:43:16.237Z,48.70
2018-01-20T18:45:45.087Z,47.35
2018-01-20T18:48:13.307Z,45.47
2018-01-20T18:50:42.290Z,41.92
2018-01-20T18:53:10.606Z,41.17
2018-01-20T18:55:38.845Z,38.05
2018-01-20T18:58:07.836Z,39.25
2018-01-20T19:00:36.828Z,38.75
2018-01-20T19:03:04.899Z,35.90
2018-01-20T19:05:32.945Z,36.78
2018-01-20T19:08:00.969Z,34.80
2018-01-20T19:10:29.225Z,36.10
2018-01-20T19:12:58.309Z,36.63
2018-01-20T19:15:27.305Z,36.80
2018-01-20T19:17:57.319Z,35.97
2018-01-20T19:20:25.598Z,36.83
2018-01-20T19:22:55.102Z,37.50
2018-01-20T19:25:24.524Z,38.45
2018-01-20T19:27:54.158Z,40.03
2018-01-20T19:30:22.390Z,39.30
2018-01-20T19:32:51.378Z,37.85
2018-01-20T19:35:19.656Z,39.33
2018-01-20T19:37:48.648Z,38.92
2018-01-20T19:40:16.921Z,41.08
2018-01-20T19:42:45.198Z,40.90
2018-01-20T19:45:14.398Z,41.63
2018-01-20T19:47:42.401Z,42.70
2018-01-20T19:50:10.642Z,42.47
2018-01-20T19:52:38.834Z,40.85
2018-01-20T19:55:07.834Z,43.53
2018-01-20T19:57:36.593Z,42.17
2018-01-20T20:00:04.974Z,43.95
2018-01-20T20:02:33.248Z,42.97
2018-01-20T20:05:02.040Z,43.65
2018-01-20T20:07:30.113Z,42.10
2018-01-20T20:09:59.100Z,45.60
2018-01-20T20:12:27.129Z,43.90
2018-01-20T20:14:55.347Z,49.05
2018-01-20T20:17:23.620Z,44.65
2018-01-20T20:19:51.896Z,45.00
2018-01-20T20:22:20.175Z,45.05
2018-01-20T20:24:48.448Z,43.22
2018-01-20T20:27:16.759Z,44.75
2018-01-20T20:29:45.000Z,41.78
2018-01-20T20:32:13.998Z,43.47
2018-01-20T20:34:42.989Z,41.67
2018-01-20T20:37:11.263Z,41.70
2018-01-20T20:39:39.536Z,42.30
2018-01-20T20:42:08.534Z,41.22
2018-01-20T20:44:36.804Z,41.25
2018-01-20T20:47:05.085Z,43.38
2018-01-20T20:49:33.357Z,44.58
2018-01-20T20:52:01.631Z,42.15
2018-01-20T20:54:29.800Z,41.37
2018-01-20T20:56:58.082Z,43.85
2018-01-20T20:59:26.263Z,41.58
2018-01-20T21:01:55.252Z,47.03
2018-01-20T21:04:23.528Z,42.00
2018-01-20T21:06:52.314Z,44.83
2018-01-20T21:09:20.591Z,43.10
2018-01-20T21:11:48.864Z,39.33
2018-01-20T21:14:17.859Z,42.05
2018-01-20T21:16:46.136Z,43.25
2018-01-20T21:19:14.309Z,43.97
2018-01-20T21:21:42.584Z,44.97
2018-01-20T21:24:10.865Z,48.17
2018-01-20T21:26:39.137Z,44.85
2018-01-20T21:29:07.409Z,43.30
2018-01-20T21:31:35.685Z,43.22
2018-01-20T21:34:03.964Z,46.40
2018-01-20T21:36:32.852Z,44.92
2018-01-20T21:39:00.925Z,46.97
2018-01-20T21:41:29.201Z,47.62
2018-01-20T21:43:58.191Z,47.17
2018-01-20T21:46:26.473Z,50.45
2018-01-20T21:48:55.463Z,46.47
2018-01-20T21:51:23.738Z,51.67
2018-01-20T21:53:51.742Z,55.35
2018-01-20T21:56:19.983Z,59.17
2018-01-20T21:58:48.152Z,55.08
2018-01-20T22:01:16.433Z,55.38
2018-01-20T22:03:44.605Z,58.08
2018-01-20T22:06:12.774Z,56.90
2018-01-20T22:08:40.895Z,54.03
2018-01-20T22:11:09.123Z,57.83
2018-01-20T22:13:37.402Z,54.88
2018-01-20T22:16:05.575Z,58.55
2018-01-20T22:18:33.848Z,63.15
2018-01-20T22:21:01.990Z,58.17
2018-01-20T22:23:30.093Z,56.65
2018-01-20T22:25:58.371Z,55.53
2018-01-20T22:28:26.647Z,56.05
2018-01-20T22:30:54.822Z,56.90
2018-01-20T22:33:22.990Z,54.10
2018-01-20T22:35:51.165Z,54.13
2018-01-20T22:38:19.442Z,55.65
2018-01-20T22:40:47.716Z,57.53
2018-01-20T22:43:15.992Z,54.53
2018-01-20T22:45:44.269Z,54.20
2018-01-20T22:48:12.381Z,53.97
2018-01-20T22:50:40.617Z,54.80
2018-01-20T22:53:08.894Z,55.08
2018-01-20T22:55:37.888Z,53.90
2018-01-20T22:58:06.980Z,55.55
2018-01-20T23:00:35.255Z,53.85
2018-01-20T23:03:03.531Z,51.50
2018-01-20T23:05:31.810Z,52.28
2018-01-20T23:08:00.082Z,55.45
2018-01-20T23:10:29.079Z,52.33
2018-01-20T23:12:58.170Z,53.58
2018-01-20T23:15:27.269Z,54.08
2018-01-20T23:17:55.544Z,53.63
2018-01-20T23:20:24.535Z,52.92
2018-01-20T23:22:52.810Z,54.67
2018-01-20T23:25:21.818Z,54.88
2018-01-20T23:27:50.795Z,55.40
2018-01-20T23:30:20.608Z,52.65
2018-01-20T23:32:49.394Z,52.38
2018-01-20T23:35:18.387Z,51.50
2018-01-20T23:37:46.665Z,54.25
2018-01-20T23:40:14.941Z,56.28
2018-01-20T23:42:43.217Z,54.72
2018-01-20T23:45:11.497Z,52.42
2018-01-20T23:47:39.772Z,52.90
2018-01-20T23:50:08.044Z,51.03
2018-01-20T23:52:36.324Z,52.08
2018-01-20T23:55:05.104Z,50.92
2018-01-20T23:57:33.384Z,52.60
